METAR Data
IDs: Format: Raw Decoded Include TAF

Data at: 1616 UTC 03 Jul 2020

KMTH 031553Z AUTO 14004KT 10SM CLR 33/26 A3000 RMK AO2 SLP157 T03330256